createdAt,value
2019-05-16T00:01:09.365Z,102500.98
2019-05-16T00:03:53.379Z,102464.77
2019-05-16T00:06:38.991Z,102474.36
2019-05-16T00:12:24.791Z,102468.06
2019-05-16T00:15:09.335Z,102466.03
2019-05-16T00:17:53.577Z,102490.06
2019-05-16T00:20:39.912Z,102458.02
2019-05-16T00:23:23.697Z,102482.69
2019-05-16T00:26:08.008Z,102451.76
2019-05-16T00:28:52.140Z,102454.39
2019-05-16T00:31:38.065Z,102480.93
2019-05-16T00:34:23.359Z,102478.10
2019-05-16T00:37:09.315Z,102474.26
2019-05-16T00:39:53.416Z,102443.78
2019-05-16T00:42:39.676Z,102472.16
2019-05-16T00:45:23.707Z,102446.91
2019-05-16T00:48:09.217Z,102463.63
2019-05-16T00:50:52.122Z,102451.11
2019-05-16T00:53:38.094Z,102444.66
2019-05-16T00:56:21.578Z,102421.64
2019-05-16T00:59:07.859Z,102425.73
2019-05-16T01:01:52.058Z,102447.14
2019-05-16T01:04:38.053Z,102418.80
2019-05-16T01:07:22.885Z,102442.60
2019-05-16T01:10:08.989Z,102420.67
2019-05-16T01:12:52.900Z,102408.45
2019-05-16T01:15:38.049Z,102413.32
2019-05-16T01:18:21.968Z,102439.86
2019-05-16T01:21:07.829Z,102440.81
2019-05-16T01:23:53.310Z,102435.77
2019-05-16T01:26:39.244Z,102425.95
2019-05-16T01:29:23.497Z,102407.94
2019-05-16T01:32:08.381Z,102421.52
2019-05-16T01:34:53.778Z,102414.80
2019-05-16T01:37:38.593Z,102413.09
2019-05-16T01:40:22.545Z,102386.95
2019-05-16T01:43:08.387Z,102376.44
2019-05-16T01:45:51.572Z,102413.45
2019-05-16T01:48:35.117Z,102416.25
2019-05-16T01:51:18.897Z,102418.68
2019-05-16T01:54:03.646Z,102380.72
2019-05-16T01:56:48.481Z,102386.93
2019-05-16T01:59:32.571Z,102386.55
2019-05-16T02:02:18.531Z,102368.24
2019-05-16T02:05:02.500Z,102362.20
2019-05-16T02:07:48.020Z,102360.05
2019-05-16T02:10:31.775Z,102365.29
2019-05-16T02:13:19.318Z,102388.16
2019-05-16T02:16:03.653Z,102352.05
2019-05-16T02:18:48.816Z,102351.38
2019-05-16T02:21:33.298Z,102357.13
2019-05-16T02:24:18.249Z,102358.03
2019-05-16T02:27:03.418Z,102351.38
2019-05-16T02:29:48.015Z,102374.06
2019-05-16T02:32:31.956Z,102372.02
2019-05-16T02:35:16.080Z,102367.14
2019-05-16T02:38:01.211Z,102340.45
2019-05-16T02:40:45.461Z,102331.25
2019-05-16T02:43:31.211Z,102337.43
2019-05-16T02:46:15.120Z,102335.27
2019-05-16T02:49:00.799Z,102323.30
2019-05-16T02:51:44.820Z,102353.31
2019-05-16T02:54:31.600Z,102319.88
2019-05-16T02:57:16.348Z,102320.84
2019-05-16T03:00:01.998Z,102313.33
2019-05-16T03:02:46.064Z,102312.46
2019-05-16T03:05:30.653Z,102314.67
2019-05-16T03:08:14.319Z,102337.83
2019-05-16T03:11:00.784Z,102336.25
2019-05-16T03:13:44.076Z,102312.70
2019-05-16T03:16:31.309Z,102298.30
2019-05-16T03:19:13.228Z,102323.55
2019-05-16T03:21:56.895Z,102319.55
2019-05-16T03:24:42.089Z,102315.83
2019-05-16T03:27:25.987Z,102284.84
2019-05-16T03:30:15.690Z,102286.19
2019-05-16T03:32:55.914Z,102304.89
2019-05-16T03:35:44.878Z,102286.59
2019-05-16T03:38:26.261Z,102302.43
2019-05-16T03:41:11.505Z,102279.09
2019-05-16T03:43:55.853Z,102303.22
2019-05-16T03:46:41.294Z,102300.77
2019-05-16T03:49:27.091Z,102265.10
2019-05-16T03:52:11.859Z,102265.27
2019-05-16T03:54:57.271Z,102291.75
2019-05-16T03:57:41.891Z,102260.85
2019-05-16T04:00:52.082Z,102282.79
2019-05-16T04:03:35.357Z,102251.89
2019-05-16T04:06:22.182Z,102277.17
2019-05-16T04:09:06.570Z,102249.52
2019-05-16T04:11:51.134Z,102275.18
2019-05-16T04:14:34.672Z,102282.91
2019-05-16T04:17:21.116Z,102284.30
2019-05-16T04:20:05.578Z,102254.11
2019-05-16T04:22:51.260Z,102253.67
2019-05-16T04:25:35.781Z,102284.58
2019-05-16T04:28:21.837Z,102245.46
2019-05-16T04:31:06.732Z,102275.03
2019-05-16T04:33:51.814Z,102278.43
2019-05-16T04:36:35.623Z,102272.30
2019-05-16T04:39:20.875Z,102270.09
2019-05-16T04:44:43.601Z,102245.30
2019-05-16T04:47:31.448Z,102272.31
2019-05-16T04:50:15.588Z,102247.91
2019-05-16T04:53:01.366Z,102272.16
2019-05-16T04:55:51.467Z,102252.63
2019-05-16T04:58:51.089Z,102251.77
2019-05-16T05:04:42.016Z,102248.71
2019-05-16T05:07:26.527Z,102267.52
2019-05-16T05:10:11.808Z,102270.67
2019-05-16T05:12:56.230Z,102267.19
2019-05-16T05:15:40.713Z,102267.86
2019-05-16T05:18:24.329Z,102235.07
2019-05-16T05:21:11.413Z,102259.14
2019-05-16T05:23:54.664Z,102257.70
2019-05-16T05:26:41.508Z,102231.72
2019-05-16T05:29:25.650Z,102235.16
2019-05-16T05:32:14.455Z,102263.84
2019-05-16T05:34:59.679Z,102229.17
2019-05-16T05:37:43.343Z,102231.48
2019-05-16T05:40:29.691Z,102250.37
2019-05-16T05:43:14.312Z,102256.58
2019-05-16T05:45:47.767Z,102258.05
2019-05-16T05:48:32.117Z,102227.50
2019-05-16T05:51:16.358Z,102229.74
2019-05-16T05:54:00.828Z,102225.83
2019-05-16T05:56:50.136Z,102227.36
2019-05-16T05:59:49.828Z,102249.60
2019-05-16T06:02:41.520Z,102222.61
2019-05-16T06:05:26.034Z,102249.45
2019-05-16T06:08:14.182Z,102226.87
2019-05-16T06:14:09.797Z,102211.97
2019-05-16T06:17:06.505Z,102218.35
2019-05-16T06:19:50.598Z,102214.59
2019-05-16T06:22:34.227Z,102232.06
2019-05-16T06:25:22.218Z,102228.80
2019-05-16T06:28:03.904Z,102206.34
2019-05-16T06:30:47.719Z,102205.36
2019-05-16T06:33:23.136Z,102227.61
2019-05-16T06:36:08.005Z,102203.70
2019-05-16T06:38:51.530Z,102213.08
2019-05-16T06:41:35.599Z,102195.39
2019-05-16T06:44:20.778Z,102220.27
2019-05-16T06:47:17.072Z,102219.08
2019-05-16T06:49:53.248Z,102217.77
2019-05-16T06:52:37.719Z,102191.45
2019-05-16T06:55:21.872Z,102189.83
2019-05-16T06:58:05.505Z,102183.45
2019-05-16T07:00:41.047Z,102209.28
2019-05-16T07:03:25.477Z,102200.74
2019-05-16T07:06:11.006Z,102212.26
2019-05-16T07:08:54.791Z,102186.59
2019-05-16T07:11:39.795Z,102188.71
2019-05-16T07:14:28.141Z,102205.94
2019-05-16T07:17:10.296Z,102188.59
2019-05-16T07:19:54.838Z,102185.30
2019-05-16T07:22:40.581Z,102177.61
2019-05-16T07:25:26.085Z,102194.48
2019-05-16T07:28:12.329Z,102186.64
2019-05-16T07:30:56.320Z,102177.47
2019-05-16T07:33:40.728Z,102161.61
2019-05-16T07:36:24.944Z,102155.86
2019-05-16T07:39:10.944Z,102182.67
2019-05-16T07:41:55.514Z,102153.77
2019-05-16T07:44:40.878Z,102153.42
2019-05-16T07:47:25.209Z,102170.92
2019-05-16T07:50:10.607Z,102155.73
2019-05-16T07:52:59.873Z,102148.69
2019-05-16T07:55:42.997Z,102170.13
2019-05-16T07:58:27.641Z,102142.81
2019-05-16T08:01:12.986Z,102164.23
2019-05-16T08:03:45.413Z,102159.48
2019-05-16T08:06:31.084Z,102137.58
2019-05-16T08:09:14.849Z,102157.03
2019-05-16T08:12:05.929Z,102150.93
2019-05-16T08:15:01.957Z,102146.97
2019-05-16T08:17:46.441Z,102135.13
2019-05-16T08:20:32.424Z,102107.58
2019-05-16T08:23:17.109Z,102134.22
2019-05-16T08:26:01.753Z,102135.23
2019-05-16T08:28:47.017Z,102129.72
2019-05-16T08:31:32.745Z,102141.80
2019-05-16T08:34:20.752Z,102135.00
2019-05-16T08:37:03.537Z,102139.84
2019-05-16T08:39:50.971Z,102142.16
2019-05-16T08:42:34.379Z,102111.69
2019-05-16T08:45:21.221Z,102129.34
2019-05-16T08:48:06.315Z,102097.97
2019-05-16T08:50:54.657Z,102116.77
2019-05-16T08:53:37.063Z,102119.50
2019-05-16T08:56:22.510Z,102113.99
2019-05-16T08:59:13.240Z,102107.50
2019-05-16T09:01:50.741Z,102102.23
2019-05-16T09:04:43.900Z,102105.33
2019-05-16T09:07:13.435Z,102099.41
2019-05-16T09:10:00.192Z,102089.78
2019-05-16T09:12:43.537Z,102060.13
2019-05-16T09:15:27.499Z,102065.52
2019-05-16T09:18:11.664Z,102055.66
2019-05-16T09:20:57.809Z,102062.34
2019-05-16T09:23:42.756Z,102080.77
2019-05-16T09:26:27.851Z,102079.64
2019-05-16T09:29:12.006Z,102066.67
2019-05-16T09:32:09.096Z,102047.42
2019-05-16T09:34:47.639Z,102035.09
2019-05-16T09:37:42.020Z,102037.84
2019-05-16T09:40:27.790Z,102047.70
2019-05-16T09:43:12.079Z,102031.67
2019-05-16T09:46:03.421Z,102054.78
2019-05-16T09:48:41.953Z,102020.44
2019-05-16T09:51:27.094Z,102039.30
2019-05-16T09:54:11.354Z,102012.72
2019-05-16T09:56:57.182Z,102019.13
2019-05-16T09:59:41.546Z,102000.48
2019-05-16T10:02:27.406Z,101992.47
2019-05-16T10:05:16.915Z,102001.31
2019-05-16T10:08:12.187Z,102016.84
2019-05-16T10:10:57.095Z,101977.17
2019-05-16T10:13:41.261Z,101986.23
2019-05-16T10:16:27.356Z,101962.53
2019-05-16T10:22:00.009Z,101950.96
2019-05-16T10:24:41.519Z,101948.70
2019-05-16T10:27:26.497Z,101953.77
2019-05-16T10:30:10.187Z,101952.58
2019-05-16T10:32:54.535Z,101946.39
2019-05-16T10:35:39.161Z,101972.33
2019-05-16T10:38:23.798Z,101934.59
2019-05-16T10:41:07.693Z,101964.02
2019-05-16T10:43:51.842Z,101958.20
2019-05-16T10:46:37.612Z,101957.62
2019-05-16T10:49:34.263Z,101956.13
2019-05-16T10:52:08.347Z,101954.98
2019-05-16T10:54:58.510Z,101955.86
2019-05-16T10:57:39.039Z,101962.23
2019-05-16T11:00:57.177Z,101961.93
2019-05-16T11:03:10.049Z,101953.58
2019-05-16T11:06:02.949Z,101947.40
2019-05-16T11:08:41.428Z,101963.64
2019-05-16T11:11:13.794Z,101965.04
2019-05-16T11:13:58.269Z,101963.83
2019-05-16T11:16:42.609Z,101943.59
2019-05-16T11:19:28.199Z,101948.87
2019-05-16T11:22:13.376Z,101947.39
2019-05-16T11:24:57.188Z,101969.11
2019-05-16T11:27:41.174Z,101951.81
2019-05-16T11:30:27.799Z,101948.42
2019-05-16T11:33:10.715Z,101978.38
2019-05-16T11:35:54.862Z,101977.85
2019-05-16T11:38:39.675Z,101979.34
2019-05-16T11:41:27.454Z,101954.85
2019-05-16T11:44:11.098Z,101975.75
2019-05-16T11:46:57.607Z,101949.02
2019-05-16T11:49:41.073Z,101958.11
2019-05-16T11:52:25.351Z,101931.82
2019-05-16T11:55:09.793Z,101947.61
2019-05-16T11:57:53.831Z,101951.23
2019-05-16T12:00:38.266Z,101925.49
2019-05-16T12:03:23.969Z,101899.99
2019-05-16T12:06:10.712Z,101926.64
2019-05-16T12:08:54.605Z,101932.28
2019-05-16T12:11:27.553Z,101937.38
2019-05-16T12:14:30.374Z,101904.03
2019-05-16T12:17:16.627Z,101915.17
2019-05-16T12:20:00.983Z,101913.67
2019-05-16T12:22:44.642Z,101882.66
2019-05-16T12:25:28.648Z,101874.09
2019-05-16T12:28:13.943Z,101894.81
2019-05-16T12:30:57.789Z,101892.83
2019-05-16T12:33:42.129Z,101866.22
2019-05-16T12:36:27.554Z,101872.90
2019-05-16T12:39:11.483Z,101863.92
2019-05-16T12:41:44.095Z,101877.87
2019-05-16T12:44:28.909Z,101859.93
2019-05-16T12:47:17.369Z,101858.73
2019-05-16T12:50:01.270Z,101852.42
2019-05-16T12:52:50.391Z,101878.39
2019-05-16T12:55:47.680Z,101849.80
2019-05-16T12:58:42.035Z,101860.59
2019-05-16T13:01:20.848Z,101860.23
2019-05-16T13:04:07.283Z,101846.06
2019-05-16T13:06:51.606Z,101837.38
2019-05-16T13:12:48.398Z,101799.16
2019-05-16T13:15:32.528Z,101804.88
2019-05-16T13:18:17.044Z,101790.93
2019-05-16T13:21:01.794Z,101814.23
2019-05-16T13:23:46.728Z,101803.58
2019-05-16T13:26:31.225Z,101771.27
2019-05-16T13:29:18.106Z,101769.37
2019-05-16T13:32:02.229Z,101779.06
2019-05-16T13:34:46.457Z,101756.09
2019-05-16T13:37:32.422Z,101780.44
2019-05-16T13:40:17.818Z,101774.81
2019-05-16T13:43:01.804Z,101743.02
2019-05-16T13:45:47.991Z,101763.66
2019-05-16T13:48:37.650Z,101739.05
2019-05-16T13:51:43.927Z,101732.73
2019-05-16T13:54:27.634Z,101725.75
2019-05-16T13:57:12.008Z,101719.97
2019-05-16T13:59:56.784Z,101712.51
2019-05-16T14:02:41.397Z,101725.31
2019-05-16T14:05:26.805Z,101698.25
2019-05-16T14:08:11.008Z,101704.38
2019-05-16T14:11:00.703Z,101678.38
2019-05-16T14:13:43.007Z,101664.78
2019-05-16T14:16:27.341Z,101677.99
2019-05-16T14:19:13.023Z,101664.22
2019-05-16T14:21:57.174Z,101672.46
2019-05-16T14:24:44.180Z,101653.27
2019-05-16T14:27:28.132Z,101651.48
2019-05-16T14:30:13.426Z,101665.16
2019-05-16T14:33:01.316Z,101659.83
2019-05-16T14:35:47.238Z,101660.56
2019-05-16T14:38:39.611Z,101649.08
2019-05-16T14:41:23.985Z,101649.94
2019-05-16T14:44:07.955Z,101624.48
2019-05-16T14:46:52.682Z,101642.33
2019-05-16T14:49:37.568Z,101644.05
2019-05-16T14:52:21.830Z,101621.67
2019-05-16T14:55:07.531Z,101617.32
2019-05-16T14:57:51.688Z,101632.00
2019-05-16T15:00:38.432Z,101637.38
2019-05-16T15:03:21.999Z,101603.88
2019-05-16T15:06:08.685Z,101621.52
2019-05-16T15:08:56.594Z,101600.15
2019-05-16T15:11:28.948Z,101614.78
2019-05-16T15:14:13.527Z,101589.37
2019-05-16T15:16:57.787Z,101606.25
2019-05-16T15:19:42.323Z,101587.97
2019-05-16T15:22:27.365Z,101578.83
2019-05-16T15:25:13.066Z,101599.25
2019-05-16T15:27:57.592Z,101571.98
2019-05-16T15:30:43.265Z,101563.23
2019-05-16T15:33:27.403Z,101561.34
2019-05-16T15:36:13.634Z,101585.96
2019-05-16T15:38:59.511Z,101586.34
2019-05-16T15:41:45.436Z,101576.63
2019-05-16T15:44:30.494Z,101581.52
2019-05-16T15:47:02.870Z,101583.70
2019-05-16T15:49:47.697Z,101557.72
2019-05-16T15:52:32.400Z,101584.36
2019-05-16T15:55:17.846Z,101550.92
2019-05-16T15:58:02.573Z,101553.58
2019-05-16T16:00:48.434Z,101550.41
2019-05-16T16:03:32.434Z,101568.83
2019-05-16T16:06:21.317Z,101534.90
2019-05-16T16:09:06.933Z,101563.47
2019-05-16T16:11:51.202Z,101556.98
2019-05-16T16:14:36.784Z,101557.70
2019-05-16T16:17:21.412Z,101562.77
2019-05-16T16:20:09.913Z,101546.39
2019-05-16T16:22:52.246Z,101576.28
2019-05-16T16:25:36.913Z,101556.13
2019-05-16T16:28:21.174Z,101579.08
2019-05-16T16:30:53.765Z,101586.09
2019-05-16T16:33:38.383Z,101562.00
2019-05-16T16:36:23.725Z,101563.19
2019-05-16T16:39:08.595Z,101572.31
2019-05-16T16:41:52.945Z,101592.80
2019-05-16T16:44:37.031Z,101560.56
2019-05-16T16:47:09.559Z,101592.22
2019-05-16T16:49:54.237Z,101568.83
2019-05-16T16:52:38.768Z,101584.88
2019-05-16T16:55:23.150Z,101568.93
2019-05-16T16:58:11.951Z,101562.05
2019-05-16T17:00:56.459Z,101585.20
2019-05-16T17:03:40.630Z,101560.70
2019-05-16T17:06:27.082Z,101566.97
2019-05-16T17:09:18.806Z,101561.47
2019-05-16T17:12:02.773Z,101557.09
2019-05-16T17:14:46.869Z,101569.53
2019-05-16T17:17:31.668Z,101587.97
2019-05-16T17:20:04.093Z,101575.01
2019-05-16T17:22:48.053Z,101579.88
2019-05-16T17:25:33.074Z,101549.44
2019-05-16T17:28:17.489Z,101570.44
2019-05-16T17:31:01.888Z,101552.56
2019-05-16T17:33:47.461Z,101566.81
2019-05-16T17:36:32.113Z,101568.80
2019-05-16T17:42:22.395Z,101578.00
2019-05-16T17:45:07.505Z,101570.42
2019-05-16T17:47:51.657Z,101584.80
2019-05-16T17:50:37.464Z,101581.81
2019-05-16T17:53:21.896Z,101551.52
2019-05-16T17:56:07.205Z,101561.14
2019-05-16T17:58:51.807Z,101564.36
2019-05-16T18:01:36.526Z,101583.67
2019-05-16T18:04:20.213Z,101577.72
2019-05-16T18:07:04.254Z,101587.75
2019-05-16T18:09:52.886Z,101583.23
2019-05-16T18:12:37.317Z,101574.66
2019-05-16T18:15:24.803Z,101558.42
2019-05-16T18:18:09.143Z,101584.13
2019-05-16T18:23:37.296Z,101554.66
2019-05-16T18:26:21.718Z,101558.47
2019-05-16T18:29:06.866Z,101580.16
2019-05-16T18:31:51.680Z,101586.18
2019-05-16T18:34:37.648Z,101560.52
2019-05-16T18:37:21.458Z,101551.63
2019-05-16T18:40:07.198Z,101572.34
2019-05-16T18:42:51.947Z,101554.37
2019-05-16T18:45:36.825Z,101578.89
2019-05-16T18:51:23.237Z,101555.13
2019-05-16T18:54:07.827Z,101572.80
2019-05-16T18:56:52.378Z,101581.08
2019-05-16T18:59:26.223Z,101580.39
2019-05-16T19:02:17.970Z,101582.66
2019-05-16T19:05:20.251Z,101580.23
2019-05-16T19:08:07.401Z,101579.23
2019-05-16T19:10:51.293Z,101581.08
2019-05-16T19:13:24.631Z,101583.81
2019-05-16T19:16:08.670Z,101579.61
2019-05-16T19:18:41.293Z,101586.13
2019-05-16T19:21:26.260Z,101588.94
2019-05-16T19:24:10.611Z,101584.81
2019-05-16T19:26:57.360Z,101567.53
2019-05-16T19:29:42.098Z,101568.32
2019-05-16T19:32:26.334Z,101585.44
2019-05-16T19:35:10.771Z,101560.39
2019-05-16T19:37:56.869Z,101583.64
2019-05-16T19:40:40.734Z,101564.38
2019-05-16T19:43:26.573Z,101556.91
2019-05-16T19:46:10.645Z,101558.55
2019-05-16T19:48:57.031Z,101585.66
2019-05-16T19:51:41.054Z,101560.08
2019-05-16T19:54:26.986Z,101575.23
2019-05-16T19:57:11.103Z,101589.48
2019-05-16T19:59:56.697Z,101563.57
2019-05-16T20:02:41.511Z,101558.23
2019-05-16T20:05:28.176Z,101575.36
2019-05-16T20:08:12.753Z,101583.19
2019-05-16T20:10:57.156Z,101556.36
2019-05-16T20:13:41.851Z,101554.08
2019-05-16T20:16:27.319Z,101567.39
2019-05-16T20:19:12.274Z,101569.86
2019-05-16T20:21:58.113Z,101579.36
2019-05-16T20:24:43.198Z,101555.55
2019-05-16T20:27:27.451Z,101554.05
2019-05-16T20:30:11.608Z,101580.70
2019-05-16T20:32:55.484Z,101554.80
2019-05-16T20:35:40.751Z,101584.62
2019-05-16T20:38:26.636Z,101578.78
2019-05-16T20:41:10.615Z,101552.83
2019-05-16T20:43:56.987Z,101550.31
2019-05-16T20:46:40.879Z,101552.66
2019-05-16T20:49:26.997Z,101573.31
2019-05-16T20:52:11.984Z,101571.52
2019-05-16T20:54:57.759Z,101565.55
2019-05-16T20:57:41.632Z,101545.81
2019-05-16T21:00:26.839Z,101542.80
2019-05-16T21:03:11.448Z,101533.89
2019-05-16T21:05:58.038Z,101531.70
2019-05-16T21:08:42.264Z,101559.92
2019-05-16T21:11:28.653Z,101555.47
2019-05-16T21:14:12.284Z,101554.38
2019-05-16T21:17:01.150Z,101556.66
2019-05-16T21:19:44.698Z,101530.03
2019-05-16T21:22:29.174Z,101545.22
2019-05-16T21:25:13.420Z,101537.84
2019-05-16T21:27:57.699Z,101544.63
2019-05-16T21:30:41.865Z,101506.55
2019-05-16T21:33:27.255Z,101507.84
2019-05-16T21:36:11.199Z,101532.47
2019-05-16T21:38:54.955Z,101532.34
2019-05-16T21:41:39.254Z,101508.28
2019-05-16T21:44:22.914Z,101528.13
2019-05-16T21:47:06.731Z,101509.60
2019-05-16T21:49:51.319Z,101528.45
2019-05-16T21:52:24.189Z,101528.20
2019-05-16T21:55:08.070Z,101507.61
2019-05-16T21:57:52.167Z,101523.66
2019-05-16T22:00:43.624Z,101524.52
2019-05-16T22:03:40.966Z,101521.97
2019-05-16T22:06:25.008Z,101498.21
2019-05-16T22:09:09.525Z,101499.02
2019-05-16T22:11:57.355Z,101523.34
2019-05-16T22:14:46.710Z,101513.62
2019-05-16T22:17:31.139Z,101514.10
2019-05-16T22:20:16.534Z,101488.36
2019-05-16T22:23:01.079Z,101509.59
2019-05-16T22:25:48.717Z,101505.16
2019-05-16T22:28:30.286Z,101503.34
2019-05-16T22:31:16.462Z,101500.73
2019-05-16T22:34:00.463Z,101473.94
2019-05-16T22:36:49.312Z,101481.21
2019-05-16T22:39:50.930Z,101459.21
2019-05-16T22:42:34.698Z,101485.95
2019-05-16T22:45:20.833Z,101481.98
2019-05-16T22:48:07.047Z,101455.23
2019-05-16T22:50:51.769Z,101454.94
2019-05-16T22:53:36.879Z,101454.80
2019-05-16T22:56:20.930Z,101470.72
2019-05-16T22:59:07.064Z,101472.38
2019-05-16T23:01:51.275Z,101470.09
2019-05-16T23:04:36.684Z,101437.50
2019-05-16T23:07:21.168Z,101442.00
2019-05-16T23:10:07.332Z,101437.93
2019-05-16T23:12:51.248Z,101445.12
2019-05-16T23:15:35.543Z,101442.86
2019-05-16T23:18:19.465Z,101458.31
2019-05-16T23:21:03.724Z,101460.80
2019-05-16T23:23:48.424Z,101450.56
2019-05-16T23:26:31.904Z,101434.52
2019-05-16T23:29:16.979Z,101447.80
2019-05-16T23:32:01.727Z,101447.30
2019-05-16T23:34:34.052Z,101439.23
2019-05-16T23:37:24.211Z,101435.87
2019-05-16T23:40:08.015Z,101412.27
2019-05-16T23:42:52.527Z,101433.33
2019-05-16T23:45:37.553Z,101411.25
2019-05-16T23:48:22.162Z,101401.41
2019-05-16T23:51:07.775Z,101405.55
2019-05-16T23:53:57.052Z,101426.80
2019-05-16T23:56:53.381Z,101405.91
2019-05-16T23:59:38.203Z,101421.73
